sensor_id;sensor_type;location;lat;lon;timestamp;pressure;altitude;pressure_sealevel;temperature;humidity
63903;BME280;50072;50.678;13.938;2024-01-30T00:00:40;101389.66;;;-1.38;100.00
63903;BME280;50072;50.678;13.938;2024-01-30T00:03:32;101394.13;;;-1.35;100.00
63903;BME280;50072;50.678;13.938;2024-01-30T00:06:11;101395.72;;;-1.39;100.00
63903;BME280;50072;50.678;13.938;2024-01-30T00:08:49;101381.19;;;-1.49;100.00
63903;BME280;50072;50.678;13.938;2024-01-30T00:11:28;101381.28;;;-1.47;100.00
63903;BME280;50072;50.678;13.938;2024-01-30T00:14:10;101381.94;;;-1.51;100.00
63903;BME280;50072;50.678;13.938;2024-01-30T00:17:10;101386.69;;;-1.44;100.00
63903;BME280;50072;50.678;13.938;2024-01-30T00:19:54;101397.69;;;-1.35;100.00
63903;BME280;50072;50.678;13.938;2024-01-30T00:22:40;101395.88;;;-1.36;100.00
63903;BME280;50072;50.678;13.938;2024-01-30T00:25:12;101399.88;;;-1.43;100.00
63903;BME280;50072;50.678;13.938;2024-01-30T00:27:40;101398.25;;;-1.41;100.00
63903;BME280;50072;50.678;13.938;2024-01-30T00:30:20;101405.00;;;-1.46;100.00
63903;BME280;50072;50.678;13.938;2024-01-30T00:33:10;101410.97;;;-1.48;100.00
63903;BME280;50072;50.678;13.938;2024-01-30T00:35:37;101399.94;;;-1.59;100.00
63903;BME280;50072;50.678;13.938;2024-01-30T00:38:10;101397.09;;;-1.64;100.00
63903;BME280;50072;50.678;13.938;2024-01-30T00:40:40;101404.88;;;-1.65;100.00
63903;BME280;50072;50.678;13.938;2024-01-30T00:45:59;101401.19;;;-1.69;100.00
63903;BME280;50072;50.678;13.938;2024-01-30T00:48:25;101402.00;;;-1.70;100.00
63903;BME280;50072;50.678;13.938;2024-01-30T00:51:22;101398.06;;;-1.78;100.00
63903;BME280;50072;50.678;13.938;2024-01-30T00:54:10;101393.56;;;-1.81;100.00
63903;BME280;50072;50.678;13.938;2024-01-30T00:56:42;101385.28;;;-1.88;100.00
63903;BME280;50072;50.678;13.938;2024-01-30T00:59:11;101390.53;;;-1.88;100.00
63903;BME280;50072;50.678;13.938;2024-01-30T01:02:02;101396.28;;;-1.79;100.00
63903;BME280;50072;50.678;13.938;2024-01-30T01:04:32;101398.06;;;-1.78;100.00
63903;BME280;50072;50.678;13.938;2024-01-30T01:06:59;101389.13;;;-1.65;100.00
63903;BME280;50072;50.678;13.938;2024-01-30T01:09:40;101393.59;;;-1.63;100.00
63903;BME280;50072;50.678;13.938;2024-01-30T01:12:07;101389.94;;;-1.66;100.00
63903;BME280;50072;50.678;13.938;2024-01-30T01:14:34;101386.22;;;-1.53;100.00
63903;BME280;50072;50.678;13.938;2024-01-30T01:17:02;101387.34;;;-1.48;100.00
63903;BME280;50072;50.678;13.938;2024-01-30T01:19:36;101387.75;;;-1.41;100.00
63903;BME280;50072;50.678;13.938;2024-01-30T01:22:02;101378.06;;;-1.42;100.00
63903;BME280;50072;50.678;13.938;2024-01-30T01:24:40;101391.28;;;-1.40;100.00
63903;BME280;50072;50.678;13.938;2024-01-30T01:27:10;101385.88;;;-1.43;100.00
63903;BME280;50072;50.678;13.938;2024-01-30T01:30:02;101380.31;;;-1.49;100.00
63903;BME280;50072;50.678;13.938;2024-01-30T01:33:02;101393.09;;;-1.56;100.00
63903;BME280;50072;50.678;13.938;2024-01-30T01:35:30;101382.81;;;-1.69;100.00
63903;BME280;50072;50.678;13.938;2024-01-30T01:38:04;101387.97;;;-1.70;100.00
63903;BME280;50072;50.678;13.938;2024-01-30T01:40:33;101381.25;;;-1.82;100.00
63903;BME280;50072;50.678;13.938;2024-01-30T01:43:03;101389.06;;;-1.83;100.00
63903;BME280;50072;50.678;13.938;2024-01-30T01:45:32;101384.63;;;-1.84;100.00
63903;BME280;50072;50.678;13.938;2024-01-30T01:47:58;101386.59;;;-1.80;100.00
63903;BME280;50072;50.678;13.938;2024-01-30T01:50:31;101379.44;;;-1.83;100.00
63903;BME280;50072;50.678;13.938;2024-01-30T01:53:10;101380.19;;;-1.85;100.00
63903;BME280;50072;50.678;13.938;2024-01-30T01:55:40;101376.75;;;-1.84;100.00
63903;BME280;50072;50.678;13.938;2024-01-30T01:58:10;101367.56;;;-1.93;100.00
63903;BME280;50072;50.678;13.938;2024-01-30T02:00:40;101352.81;;;-2.07;100.00
63903;BME280;50072;50.678;13.938;2024-01-30T02:03:34;101365.44;;;-2.00;100.00
63903;BME280;50072;50.678;13.938;2024-01-30T02:06:07;101365.84;;;-1.92;100.00
63903;BME280;50072;50.678;13.938;2024-01-30T02:08:40;101360.59;;;-1.92;100.00
63903;BME280;50072;50.678;13.938;2024-01-30T02:11:10;101361.09;;;-1.99;100.00
63903;BME280;50072;50.678;13.938;2024-01-30T02:13:40;101355.84;;;-1.99;100.00
63903;BME280;50072;50.678;13.938;2024-01-30T02:16:10;101352.97;;;-2.04;100.00
63903;BME280;50072;50.678;13.938;2024-01-30T02:18:40;101353.03;;;-2.02;100.00
63903;BME280;50072;50.678;13.938;2024-01-30T02:21:21;101349.78;;;-1.98;100.00
63903;BME280;50072;50.678;13.938;2024-01-30T02:24:03;101356.66;;;-1.84;100.00
63903;BME280;50072;50.678;13.938;2024-01-30T02:26:32;101345.75;;;-1.92;100.00
63903;BME280;50072;50.678;13.938;2024-01-30T02:29:03;101360.09;;;-2.01;100.00
63903;BME280;50072;50.678;13.938;2024-01-30T02:31:40;101358.22;;;-2.04;100.00
63903;BME280;50072;50.678;13.938;2024-01-30T02:34:06;101361.53;;;-2.08;100.00
63903;BME280;50072;50.678;13.938;2024-01-30T02:36:32;101349.38;;;-2.06;100.00
63903;BME280;50072;50.678;13.938;2024-01-30T02:39:03;101355.81;;;-1.83;100.00
63903;BME280;50072;50.678;13.938;2024-01-30T02:41:32;101351.16;;;-1.72;100.00
63903;BME280;50072;50.678;13.938;2024-01-30T02:44:05;101352.78;;;-1.74;100.00
63903;BME280;50072;50.678;13.938;2024-01-30T02:46:32;101349.59;;;-1.85;100.00
63903;BME280;50072;50.678;13.938;2024-01-30T02:49:02;101350.81;;;-1.78;100.00
63903;BME280;50072;50.678;13.938;2024-01-30T02:51:32;101344.91;;;-1.74;100.00
63903;BME280;50072;50.678;13.938;2024-01-30T02:54:04;101338.19;;;-1.69;100.00
63903;BME280;50072;50.678;13.938;2024-01-30T02:56:32;101342.47;;;-1.71;100.00
63903;BME280;50072;50.678;13.938;2024-01-30T02:59:02;101353.28;;;-1.81;100.00
63903;BME280;50072;50.678;13.938;2024-01-30T03:05:10;101346.00;;;-1.87;100.00
63903;BME280;50072;50.678;13.938;2024-01-30T03:08:10;101344.44;;;-2.00;100.00
63903;BME280;50072;50.678;13.938;2024-01-30T03:10:40;101338.31;;;-2.00;100.00
63903;BME280;50072;50.678;13.938;2024-01-30T03:13:06;101338.53;;;-1.96;100.00
63903;BME280;50072;50.678;13.938;2024-01-30T03:15:40;101340.59;;;-1.90;100.00
63903;BME280;50072;50.678;13.938;2024-01-30T03:18:31;101354.44;;;-1.93;100.00
63903;BME280;50072;50.678;13.938;2024-01-30T03:21:10;101344.78;;;-1.94;100.00
63903;BME280;50072;50.678;13.938;2024-01-30T03:24:02;101350.34;;;-1.87;100.00
63903;BME280;50072;50.678;13.938;2024-01-30T03:26:34;101351.06;;;-1.90;100.00
63903;BME280;50072;50.678;13.938;2024-01-30T03:29:02;101343.13;;;-1.92;100.00
63903;BME280;50072;50.678;13.938;2024-01-30T03:31:34;101334.75;;;-1.84;100.00
63903;BME280;50072;50.678;13.938;2024-01-30T03:34:04;101341.81;;;-1.83;100.00
63903;BME280;50072;50.678;13.938;2024-01-30T03:36:40;101337.31;;;-1.86;100.00
63903;BME280;50072;50.678;13.938;2024-01-30T03:39:05;101346.56;;;-1.93;100.00
63903;BME280;50072;50.678;13.938;2024-01-30T03:41:32;101344.78;;;-1.94;100.00
63903;BME280;50072;50.678;13.938;2024-01-30T03:44:02;101339.34;;;-1.97;100.00
63903;BME280;50072;50.678;13.938;2024-01-30T03:46:40;101341.16;;;-1.96;100.00
63903;BME280;50072;50.678;13.938;2024-01-30T03:52:10;101334.09;;;-1.97;100.00
63903;BME280;50072;50.678;13.938;2024-01-30T03:55:05;101340.44;;;-1.93;100.00
63903;BME280;50072;50.678;13.938;2024-01-30T03:57:32;101337.72;;;-1.95;100.00
63903;BME280;50072;50.678;13.938;2024-01-30T04:00:03;101342.72;;;-1.83;100.00
63903;BME280;50072;50.678;13.938;2024-01-30T04:02:35;101342.31;;;-1.91;100.00
63903;BME280;50072;50.678;13.938;2024-01-30T04:05:05;101334.28;;;-1.94;100.00
63903;BME280;50072;50.678;13.938;2024-01-30T04:07:34;101332.78;;;-1.88;100.00
63903;BME280;50072;50.678;13.938;2024-01-30T04:10:05;101326.22;;;-1.80;100.00
63903;BME280;50072;50.678;13.938;2024-01-30T04:12:40;101335.75;;;-1.82;100.00
63903;BME280;50072;50.678;13.938;2024-01-30T04:15:10;101328.69;;;-1.83;100.00
63903;BME280;50072;50.678;13.938;2024-01-30T04:17:35;101334.59;;;-1.87;100.00
63903;BME280;50072;50.678;13.938;2024-01-30T04:20:34;101336.41;;;-1.86;100.00
63903;BME280;50072;50.678;13.938;2024-01-30T04:23:10;101334.59;;;-1.87;100.00
63903;BME280;50072;50.678;13.938;2024-01-30T04:25:47;101337.06;;;-1.91;100.00
63903;BME280;50072;50.678;13.938;2024-01-30T04:28:22;101338.03;;;-1.88;100.00
63903;BME280;50072;50.678;13.938;2024-01-30T04:31:02;101337.06;;;-1.91;100.00
63903;BME280;50072;50.678;13.938;2024-01-30T04:33:34;101338.19;;;-1.85;100.00
63903;BME280;50072;50.678;13.938;2024-01-30T04:38:38;101336.84;;;-1.95;100.00
63903;BME280;50072;50.678;13.938;2024-01-30T04:41:10;101339.19;;;-2.00;100.00
63903;BME280;50072;50.678;13.938;2024-01-30T04:43:40;101329.34;;;-2.04;100.00
63903;BME280;50072;50.678;13.938;2024-01-30T04:46:10;101342.09;;;-1.95;100.00
63903;BME280;50072;50.678;13.938;2024-01-30T04:48:36;101339.69;;;-1.91;100.00
63903;BME280;50072;50.678;13.938;2024-01-30T04:51:04;101343.28;;;-1.88;100.00
63903;BME280;50072;50.678;13.938;2024-01-30T04:53:36;101335.25;;;-1.92;100.00
63903;BME280;50072;50.678;13.938;2024-01-30T04:56:04;101334.53;;;-1.89;100.00
63903;BME280;50072;50.678;13.938;2024-01-30T04:58:40;101337.22;;;-1.87;100.00
63903;BME280;50072;50.678;13.938;2024-01-30T05:01:06;101334.28;;;-1.94;100.00
63903;BME280;50072;50.678;13.938;2024-01-30T05:03:35;101330.66;;;-1.96;100.00
63903;BME280;50072;50.678;13.938;2024-01-30T05:06:02;101333.44;;;-1.93;100.00
63903;BME280;50072;50.678;13.938;2024-01-30T05:08:28;101331.41;;;-1.98;100.00
63903;BME280;50072;50.678;13.938;2024-01-30T05:10:54;101325.41;;;-1.96;100.00
63903;BME280;50072;50.678;13.938;2024-01-30T05:13:20;101329.84;;;-1.95;100.00
63903;BME280;50072;50.678;13.938;2024-01-30T05:15:46;101337.00;;;-1.92;100.00
63903;BME280;50072;50.678;13.938;2024-01-30T05:18:12;101340.66;;;-1.88;100.00
63903;BME280;50072;50.678;13.938;2024-01-30T05:20:37;101334.59;;;-1.87;100.00
63903;BME280;50072;50.678;13.938;2024-01-30T05:23:03;101331.09;;;-1.88;100.00
63903;BME280;50072;50.678;13.938;2024-01-30T05:25:29;101331.31;;;-1.83;100.00
63903;BME280;50072;50.678;13.938;2024-01-30T05:27:56;101333.06;;;-1.84;100.00
63903;BME280;50072;50.678;13.938;2024-01-30T05:30:40;101341.59;;;-1.88;100.00
63903;BME280;50072;50.678;13.938;2024-01-30T05:33:06;101343.63;;;-1.82;100.00
63903;BME280;50072;50.678;13.938;2024-01-30T05:35:31;101336.94;;;-1.76;100.00
63903;BME280;50072;50.678;13.938;2024-01-30T05:37:57;101332.78;;;-1.88;100.00
63903;BME280;50072;50.678;13.938;2024-01-30T05:40:23;101337.06;;;-1.91;100.00
63903;BME280;50072;50.678;13.938;2024-01-30T05:42:48;101336.66;;;-1.98;100.00
63903;BME280;50072;50.678;13.938;2024-01-30T05:45:14;101339.69;;;-1.91;100.00
63903;BME280;50072;50.678;13.938;2024-01-30T05:47:39;101345.09;;;-1.87;100.00
63903;BME280;50072;50.678;13.938;2024-01-30T05:50:06;101339.69;;;-1.91;100.00
63903;BME280;50072;50.678;13.938;2024-01-30T05:52:31;101337.72;;;-1.95;100.00
63903;BME280;50072;50.678;13.938;2024-01-30T05:54:57;101334.09;;;-1.97;100.00
63903;BME280;50072;50.678;13.938;2024-01-30T05:57:23;101342.25;;;-1.92;100.00
63903;BME280;50072;50.678;13.938;2024-01-30T05:59:49;101342.16;;;-1.94;100.00
63903;BME280;50072;50.678;13.938;2024-01-30T06:02:17;101340.59;;;-1.90;100.00
63903;BME280;50072;50.678;13.938;2024-01-30T06:04:42;101345.59;;;-1.95;100.00
63903;BME280;50072;50.678;13.938;2024-01-30T06:07:10;101342.47;;;-1.87;100.00
63903;BME280;50072;50.678;13.938;2024-01-30T06:09:35;101339.84;;;-1.87;100.00
63903;BME280;50072;50.678;13.938;2024-01-30T06:12:02;101334.97;;;-1.80;100.00
63903;BME280;50072;50.678;13.938;2024-01-30T06:14:28;101329.50;;;-1.84;100.00
63903;BME280;50072;50.678;13.938;2024-01-30T06:16:54;101350.16;;;-1.74;100.00
63903;BME280;50072;50.678;13.938;2024-01-30T06:19:20;101342.28;;;-1.74;100.00
63903;BME280;50072;50.678;13.938;2024-01-30T06:21:45;101349.34;;;-1.73;100.00
63903;BME280;50072;50.678;13.938;2024-01-30T06:24:11;101340.50;;;-1.75;100.00
63903;BME280;50072;50.678;13.938;2024-01-30T06:26:37;101336.00;;;-1.60;100.00
63903;BME280;50072;50.678;13.938;2024-01-30T06:29:03;101342.47;;;-1.53;100.00
63903;BME280;50072;50.678;13.938;2024-01-30T06:31:28;101339.63;;;-1.58;100.00
63903;BME280;50072;50.678;13.938;2024-01-30T06:33:54;101336.72;;;-1.46;100.00
63903;BME280;50072;50.678;13.938;2024-01-30T06:36:20;101339.09;;;-1.34;100.00
63903;BME280;50072;50.678;13.938;2024-01-30T06:38:46;101338.56;;;-1.27;100.00
63903;BME280;50072;50.678;13.938;2024-01-30T06:41:12;101341.19;;;-1.27;100.00
63903;BME280;50072;50.678;13.938;2024-01-30T06:43:38;101333.06;;;-1.31;100.00
63903;BME280;50072;50.678;13.938;2024-01-30T06:46:03;101341.47;;;-1.20;100.00
63903;BME280;50072;50.678;13.938;2024-01-30T06:48:29;101339.88;;;-1.17;100.00
63903;BME280;50072;50.678;13.938;2024-01-30T06:50:57;101356.66;;;-1.15;100.00
63903;BME280;50072;50.678;13.938;2024-01-30T06:53:23;101345.28;;;-1.32;100.00
63903;BME280;50072;50.678;13.938;2024-01-30T06:55:51;101344.78;;;-1.25;100.00
63903;BME280;50072;50.678;13.938;2024-01-30T06:58:18;101351.97;;;-1.20;100.00
63903;BME280;50072;50.678;13.938;2024-01-30T07:00:44;101348.53;;;-1.19;100.00
63903;BME280;50072;50.678;13.938;2024-01-30T07:03:09;101347.16;;;-1.11;100.00
63903;BME280;50072;50.678;13.938;2024-01-30T07:05:35;101342.09;;;-1.08;100.00
63903;BME280;50072;50.678;13.938;2024-01-30T07:08:01;101336.00;;;-1.25;100.00
63903;BME280;50072;50.678;13.938;2024-01-30T07:10:27;101345.06;;;-1.18;100.00
63903;BME280;50072;50.678;13.938;2024-01-30T07:12:53;101346.56;;;-1.42;100.00
63903;BME280;50072;50.678;13.938;2024-01-30T07:15:19;101337.63;;;-1.27;100.00
63903;BME280;50072;50.678;13.938;2024-01-30T07:17:46;101344.78;;;-1.25;100.00
63903;BME280;50072;50.678;13.938;2024-01-30T07:20:12;101350.50;;;-1.15;100.00
63903;BME280;50072;50.678;13.938;2024-01-30T07:22:38;101330.69;;;-1.27;100.00
63903;BME280;50072;50.678;13.938;2024-01-30T07:25:04;101337.88;;;-1.05;100.00
63903;BME280;50072;50.678;13.938;2024-01-30T07:27:30;101343.34;;;-1.00;100.00
63903;BME280;50072;50.678;13.938;2024-01-30T07:30:13;101343.59;;;-0.95;100.00
63903;BME280;50072;50.678;13.938;2024-01-30T07:32:40;101339.09;;;-0.98;100.00
63903;BME280;50072;50.678;13.938;2024-01-30T07:35:12;101338.63;;;-1.07;100.00
63903;BME280;50072;50.678;13.938;2024-01-30T07:37:40;101343.19;;;-1.03;100.00
63903;BME280;50072;50.678;13.938;2024-01-30T07:40:10;101352.66;;;-0.89;100.00
63903;BME280;50072;50.678;13.938;2024-01-30T07:42:40;101344.78;;;-0.89;100.00
63903;BME280;50072;50.678;13.938;2024-01-30T07:45:10;101351.44;;;-0.77;100.00
63903;BME280;50072;50.678;13.938;2024-01-30T07:47:42;101344.00;;;-0.68;100.00
63903;BME280;50072;50.678;13.938;2024-01-30T07:50:10;101351.91;;;-0.68;100.00
63903;BME280;50072;50.678;13.938;2024-01-30T07:52:42;101356.03;;;-0.73;100.00
63903;BME280;50072;50.678;13.938;2024-01-30T07:55:10;101349.06;;;-0.91;100.00
63903;BME280;50072;50.678;13.938;2024-01-30T07:57:40;101348.66;;;-0.98;100.00
63903;BME280;50072;50.678;13.938;2024-01-30T08:00:12;101339.81;;;-0.82;100.00
63903;BME280;50072;50.678;13.938;2024-01-30T08:02:40;101343.09;;;-0.68;100.00
63903;BME280;50072;50.678;13.938;2024-01-30T08:05:12;101347.03;;;-0.78;100.00
63903;BME280;50072;50.678;13.938;2024-01-30T08:07:41;101347.31;;;-0.72;100.00
63903;BME280;50072;50.678;13.938;2024-01-30T08:10:13;101331.53;;;-0.72;100.00
63903;BME280;50072;50.678;13.938;2024-01-30T08:12:40;101338.75;;;-0.86;100.00
63903;BME280;50072;50.678;13.938;2024-01-30T08:15:13;101344.19;;;-1.01;100.00
63903;BME280;50072;50.678;13.938;2024-01-30T08:17:40;101327.50;;;-1.01;100.00
63903;BME280;50072;50.678;13.938;2024-01-30T08:20:12;101338.84;;;-0.84;100.00
63903;BME280;50072;50.678;13.938;2024-01-30T08:22:40;101346.66;;;-0.86;100.00
63903;BME280;50072;50.678;13.938;2024-01-30T08:25:12;101329.53;;;-0.96;100.00
63903;BME280;50072;50.678;13.938;2024-01-30T08:27:40;101347.94;;;-0.96;100.00
63903;BME280;50072;50.678;13.938;2024-01-30T08:30:10;101347.13;;;-0.95;100.00
63903;BME280;50072;50.678;13.938;2024-01-30T08:32:40;101336.66;;;-0.93;100.00
63903;BME280;50072;50.678;13.938;2024-01-30T08:35:10;101345.97;;;-1.00;100.00
63903;BME280;50072;50.678;13.938;2024-01-30T08:37:40;101342.31;;;-1.03;100.00
63903;BME280;50072;50.678;13.938;2024-01-30T08:40:11;101343.88;;;-1.07;100.00
63903;BME280;50072;50.678;13.938;2024-01-30T08:42:40;101345.69;;;-1.06;100.00
63903;BME280;50072;50.678;13.938;2024-01-30T08:45:11;101344.88;;;-1.05;100.00
63903;BME280;50072;50.678;13.938;2024-01-30T08:47:40;101337.66;;;-1.09;100.00
63903;BME280;50072;50.678;13.938;2024-01-30T08:50:12;101339.81;;;-1.00;100.00
63903;BME280;50072;50.678;13.938;2024-01-30T08:52:40;101340.28;;;-0.91;100.00
63903;BME280;50072;50.678;13.938;2024-01-30T08:55:12;101340.91;;;-0.97;100.00
63903;BME280;50072;50.678;13.938;2024-01-30T08:57:40;101348.06;;;-0.93;100.00
63903;BME280;50072;50.678;13.938;2024-01-30T09:00:10;101344.19;;;-1.01;100.00
63903;BME280;50072;50.678;13.938;2024-01-30T09:02:40;101345.09;;;-0.82;100.00
63903;BME280;50072;50.678;13.938;2024-01-30T09:05:10;101342.38;;;-1.02;100.00
63903;BME280;50072;50.678;13.938;2024-01-30T09:07:38;101338.09;;;-1.00;100.00
63903;BME280;50072;50.678;13.938;2024-01-30T09:10:10;101343.41;;;-0.98;100.00
63903;BME280;50072;50.678;13.938;2024-01-30T09:12:40;101349.59;;;-0.98;100.00
63903;BME280;50072;50.678;13.938;2024-01-30T09:15:06;101337.19;;;-1.00;100.00
63903;BME280;50072;50.678;13.938;2024-01-30T09:17:40;101337.66;;;-1.09;100.00
63903;BME280;50072;50.678;13.938;2024-01-30T09:20:11;101344.19;;;-1.01;100.00
63903;BME280;50072;50.678;13.938;2024-01-30T09:22:37;101347.78;;;-0.99;100.00
63903;BME280;50072;50.678;13.938;2024-01-30T09:25:10;101347.13;;;-0.95;100.00
63903;BME280;50072;50.678;13.938;2024-01-30T09:27:38;101344.41;;;-0.96;100.00
63903;BME280;50072;50.678;13.938;2024-01-30T09:30:13;101341.41;;;-0.86;100.00
63903;BME280;50072;50.678;13.938;2024-01-30T09:32:40;101345.09;;;-0.82;100.00
63903;BME280;50072;50.678;13.938;2024-01-30T09:35:06;101333.03;;;-0.77;100.00
63903;BME280;50072;50.678;13.938;2024-01-30T09:37:33;101328.91;;;-0.72;100.00
63903;BME280;50072;50.678;13.938;2024-01-30T09:40:10;101347.91;;;-0.60;100.00
63903;BME280;50072;50.678;13.938;2024-01-30T09:42:40;101342.66;;;-0.60;100.00
63903;BME280;50072;50.678;13.938;2024-01-30T09:45:10;101345.50;;;-0.73;100.00
63903;BME280;50072;50.678;13.938;2024-01-30T09:47:43;101347.03;;;-0.78;100.00
63903;BME280;50072;50.678;13.938;2024-01-30T09:50:12;101346.31;;;-0.74;100.00
63903;BME280;50072;50.678;13.938;2024-01-30T09:52:40;101344.16;;;-0.65;100.00
63903;BME280;50072;50.678;13.938;2024-01-30T09:55:12;101351.84;;;-0.70;100.00
63903;BME280;50072;50.678;13.938;2024-01-30T09:57:41;101353.72;;;-0.67;100.00
63903;BME280;50072;50.678;13.938;2024-01-30T10:00:10;101351.38;;;-0.61;100.00
63903;BME280;50072;50.678;13.938;2024-01-30T10:02:38;101347.66;;;-0.64;100.00
63903;BME280;50072;50.678;13.938;2024-01-30T10:05:11;101343.25;;;-0.65;100.00
63903;BME280;50072;50.678;13.938;2024-01-30T10:07:50;101348.44;;;-0.67;100.00
63903;BME280;50072;50.678;13.938;2024-01-30T10:10:18;101342.66;;;-0.60;100.00
63903;BME280;50072;50.678;13.938;2024-01-30T10:13:03;101349.13;;;-0.71;100.00
63903;BME280;50072;50.678;13.938;2024-01-30T10:15:41;101342.47;;;-0.63;100.00
63903;BME280;50072;50.678;13.938;2024-01-30T10:18:10;101341.53;;;-0.65;100.00
63903;BME280;50072;50.678;13.938;2024-01-30T10:20:42;101332.75;;;-0.65;100.00
63903;BME280;50072;50.678;13.938;2024-01-30T10:23:11;101338.44;;;-0.74;100.00
63903;BME280;50072;50.678;13.938;2024-01-30T10:25:37;101332.16;;;-0.78;100.00
63903;BME280;50072;50.678;13.938;2024-01-30T10:28:10;101329.44;;;-0.79;100.00
63903;BME280;50072;50.678;13.938;2024-01-30T10:30:36;101337.88;;;-0.87;100.00
63903;BME280;50072;50.678;13.938;2024-01-30T10:33:10;101326.53;;;-0.85;100.00
63903;BME280;50072;50.678;13.938;2024-01-30T10:35:42;101324.06;;;-0.82;100.00
63903;BME280;50072;50.678;13.938;2024-01-30T10:38:11;101328.44;;;-0.63;100.00
63903;BME280;50072;50.678;13.938;2024-01-30T10:40:42;101322.72;;;-0.55;100.00
63903;BME280;50072;50.678;13.938;2024-01-30T10:43:10;101316.91;;;-0.67;100.00
63903;BME280;50072;50.678;13.938;2024-01-30T10:45:41;101315.16;;;-0.66;100.00
63903;BME280;50072;50.678;13.938;2024-01-30T10:48:11;101312.31;;;-0.71;100.00
63903;BME280;50072;50.678;13.938;2024-01-30T10:50:41;101314.56;;;-0.61;100.00
63903;BME280;50072;50.678;13.938;2024-01-30T10:53:10;101307.75;;;-0.56;100.00
63903;BME280;50072;50.678;13.938;2024-01-30T10:55:37;101311.22;;;-0.57;100.00
63903;BME280;50072;50.678;13.938;2024-01-30T10:58:10;101302.34;;;-0.59;100.00
63903;BME280;50072;50.678;13.938;2024-01-30T11:00:43;101313.81;;;-0.58;100.00
63903;BME280;50072;50.678;13.938;2024-01-30T11:03:11;101311.09;;;-0.60;100.00
63903;BME280;50072;50.678;13.938;2024-01-30T11:05:43;101301.47;;;-0.59;100.00
63903;BME280;50072;50.678;13.938;2024-01-30T11:08:24;101305.97;;;-0.57;100.00
63903;BME280;50072;50.678;13.938;2024-01-30T11:13:40;101289.66;;;-0.49;100.00
63903;BME280;50072;50.678;13.938;2024-01-30T11:16:12;101298.16;;;-0.55;100.00
63903;BME280;50072;50.678;13.938;2024-01-30T11:18:40;101291.28;;;-0.71;100.00
63903;BME280;50072;50.678;13.938;2024-01-30T11:21:13;101278.41;;;-0.65;100.00
63903;BME280;50072;50.678;13.938;2024-01-30T11:23:42;101282.22;;;-0.39;100.00
63903;BME280;50072;50.678;13.938;2024-01-30T11:26:10;101270.56;;;-0.45;100.00
63903;BME280;50072;50.678;13.938;2024-01-30T11:28:43;101283.69;;;-0.26;100.00
63903;BME280;50072;50.678;13.938;2024-01-30T11:31:18;101278.28;;;-0.29;100.00
63903;BME280;50072;50.678;13.938;2024-01-30T11:34:03;101268.25;;;-0.18;100.00
63903;BME280;50072;50.678;13.938;2024-01-30T11:36:40;101270.25;;;-0.12;100.00
63903;BME280;50072;50.678;13.938;2024-01-30T11:39:10;101266.25;;;-0.04;100.00
63903;BME280;50072;50.678;13.938;2024-01-30T11:41:41;101261.09;;;-0.01;100.00
63903;BME280;50072;50.678;13.938;2024-01-30T11:44:12;101264.44;;;-0.05;100.00
63903;BME280;50072;50.678;13.938;2024-01-30T11:46:40;101260.81;;;-0.07;100.00
63903;BME280;50072;50.678;13.938;2024-01-30T11:49:06;101252.09;;;-0.06;100.00
63903;BME280;50072;50.678;13.938;2024-01-30T11:51:40;101251.97;;;-0.09;100.00
63903;BME280;50072;50.678;13.938;2024-01-30T11:54:12;101253.94;;;0.16;100.00
63903;BME280;50072;50.678;13.938;2024-01-30T11:56:40;101233.00;;;0.40;100.00
63903;BME280;50072;50.678;13.938;2024-01-30T11:59:10;101255.25;;;0.48;100.00
63903;BME280;50072;50.678;13.938;2024-01-30T12:01:37;101265.59;;;0.65;100.00
63903;BME280;50072;50.678;13.938;2024-01-30T12:04:09;101252.00;;;0.33;100.00
63903;BME280;50072;50.678;13.938;2024-01-30T12:06:40;101248.28;;;0.28;100.00
63903;BME280;50072;50.678;13.938;2024-01-30T12:09:10;101255.81;;;0.19;100.00
63903;BME280;50072;50.678;13.938;2024-01-30T12:11:53;101255.88;;;0.20;100.00
63903;BME280;50072;50.678;13.938;2024-01-30T12:14:33;101253.78;;;0.34;100.00
63903;BME280;50072;50.678;13.938;2024-01-30T12:17:03;101248.78;;;0.19;100.00
63903;BME280;50072;50.678;13.938;2024-01-30T12:19:34;101244.53;;;0.23;100.00
63903;BME280;50072;50.678;13.938;2024-01-30T12:22:03;101247.94;;;-0.01;100.00
63903;BME280;50072;50.678;13.938;2024-01-30T12:24:40;101245.81;;;-0.10;100.00
63903;BME280;50072;50.678;13.938;2024-01-30T12:27:10;101254.72;;;-0.06;100.00
63903;BME280;50072;50.678;13.938;2024-01-30T12:29:41;101256.28;;;-0.11;100.00
63903;BME280;50072;50.678;13.938;2024-01-30T12:32:16;101240.25;;;-0.16;100.00
63903;BME280;50072;50.678;13.938;2024-01-30T12:34:56;101249.41;;;-0.08;100.00
63903;BME280;50072;50.678;13.938;2024-01-30T12:37:22;101242.97;;;-0.14;100.00
63903;BME280;50072;50.678;13.938;2024-01-30T12:40:03;101242.13;;;-0.13;100.00
63903;BME280;50072;50.678;13.938;2024-01-30T12:42:41;101236.44;;;-0.03;100.00
63903;BME280;50072;50.678;13.938;2024-01-30T12:45:10;101234.72;;;-0.03;100.00
63903;BME280;50072;50.678;13.938;2024-01-30T12:47:41;101222.44;;;-0.02;100.00
63903;BME280;50072;50.678;13.938;2024-01-30T12:50:10;101228.97;;;-0.13;100.00
63903;BME280;50072;50.678;13.938;2024-01-30T12:52:38;101229.88;;;-0.13;100.00
63903;BME280;50072;50.678;13.938;2024-01-30T12:55:10;101225.53;;;-0.12;100.00
63903;BME280;50072;50.678;13.938;2024-01-30T12:57:40;101223.72;;;-0.13;100.00
63903;BME280;50072;50.678;13.938;2024-01-30T13:00:10;101237.31;;;-0.24;100.00
63903;BME280;50072;50.678;13.938;2024-01-30T13:02:40;101230.09;;;-0.28;100.00
63903;BME280;50072;50.678;13.938;2024-01-30T13:05:10;101224.03;;;-0.27;100.00